sensor_id;sensor_type;location;lat;lon;timestamp;P1;durP1;ratioP1;P2;durP2;ratioP2
59310;SDS011;45078;51.654;21.250;2023-10-13T00:01:57;9.60;;;2.20;;
59310;SDS011;45078;51.654;21.250;2023-10-13T00:04:24;8.35;;;2.63;;
59310;SDS011;45078;51.654;21.250;2023-10-13T00:06:51;7.60;;;2.03;;
59310;SDS011;45078;51.654;21.250;2023-10-13T00:09:18;9.18;;;2.22;;
59310;SDS011;45078;51.654;21.250;2023-10-13T00:11:45;8.05;;;2.45;;
59310;SDS011;45078;51.654;21.250;2023-10-13T00:14:12;15.15;;;2.30;;
59310;SDS011;45078;51.654;21.250;2023-10-13T00:16:41;7.20;;;2.10;;
59310;SDS011;45078;51.654;21.250;2023-10-13T00:19:25;5.82;;;1.73;;
59310;SDS011;45078;51.654;21.250;2023-10-13T00:22:02;8.20;;;2.38;;
59310;SDS011;45078;51.654;21.250;2023-10-13T00:27:08;5.25;;;1.77;;
59310;SDS011;45078;51.654;21.250;2023-10-13T00:29:49;5.72;;;2.03;;
59310;SDS011;45078;51.654;21.250;2023-10-13T00:32:15;5.50;;;1.90;;
59310;SDS011;45078;51.654;21.250;2023-10-13T00:34:45;6.75;;;2.45;;
59310;SDS011;45078;51.654;21.250;2023-10-13T00:37:10;5.75;;;2.00;;
59310;SDS011;45078;51.654;21.250;2023-10-13T00:39:43;4.60;;;2.05;;
59310;SDS011;45078;51.654;21.250;2023-10-13T00:42:10;5.90;;;2.50;;
59310;SDS011;45078;51.654;21.250;2023-10-13T00:44:44;5.80;;;2.15;;
59310;SDS011;45078;51.654;21.250;2023-10-13T00:47:13;9.52;;;2.78;;
59310;SDS011;45078;51.654;21.250;2023-10-13T00:49:45;5.13;;;1.90;;
59310;SDS011;45078;51.654;21.250;2023-10-13T00:52:13;4.20;;;2.13;;
59310;SDS011;45078;51.654;21.250;2023-10-13T00:54:41;4.53;;;1.85;;
59310;SDS011;45078;51.654;21.250;2023-10-13T00:57:13;7.20;;;2.40;;
59310;SDS011;45078;51.654;21.250;2023-10-13T00:59:59;5.15;;;1.92;;
59310;SDS011;45078;51.654;21.250;2023-10-13T01:02:37;8.88;;;2.40;;
59310;SDS011;45078;51.654;21.250;2023-10-13T01:05:03;6.80;;;2.10;;
59310;SDS011;45078;51.654;21.250;2023-10-13T01:07:44;6.25;;;2.08;;
59310;SDS011;45078;51.654;21.250;2023-10-13T01:10:11;6.07;;;2.10;;
59310;SDS011;45078;51.654;21.250;2023-10-13T01:12:40;5.18;;;1.95;;
59310;SDS011;45078;51.654;21.250;2023-10-13T01:15:10;9.35;;;2.15;;
59310;SDS011;45078;51.654;21.250;2023-10-13T01:17:40;4.68;;;1.98;;
59310;SDS011;45078;51.654;21.250;2023-10-13T01:20:11;6.18;;;2.75;;
59310;SDS011;45078;51.654;21.250;2023-10-13T01:22:46;5.60;;;2.17;;
59310;SDS011;45078;51.654;21.250;2023-10-13T01:25:21;5.97;;;1.90;;
59310;SDS011;45078;51.654;21.250;2023-10-13T01:27:52;6.53;;;2.30;;
59310;SDS011;45078;51.654;21.250;2023-10-13T01:30:17;8.75;;;2.22;;
59310;SDS011;45078;51.654;21.250;2023-10-13T01:32:48;13.20;;;2.28;;
59310;SDS011;45078;51.654;21.250;2023-10-13T01:35:16;9.20;;;2.30;;
59310;SDS011;45078;51.654;21.250;2023-10-13T01:37:43;5.00;;;2.20;;
59310;SDS011;45078;51.654;21.250;2023-10-13T01:40:10;7.28;;;2.35;;
59310;SDS011;45078;51.654;21.250;2023-10-13T01:42:37;7.63;;;2.55;;
59310;SDS011;45078;51.654;21.250;2023-10-13T01:45:04;8.73;;;2.38;;
59310;SDS011;45078;51.654;21.250;2023-10-13T01:47:31;7.75;;;1.77;;
59310;SDS011;45078;51.654;21.250;2023-10-13T01:49:58;6.18;;;2.10;;
59310;SDS011;45078;51.654;21.250;2023-10-13T01:52:31;5.45;;;2.35;;
59310;SDS011;45078;51.654;21.250;2023-10-13T01:54:57;8.05;;;2.42;;
59310;SDS011;45078;51.654;21.250;2023-10-13T01:57:26;6.10;;;2.10;;
59310;SDS011;45078;51.654;21.250;2023-10-13T01:59:53;7.22;;;2.75;;
59310;SDS011;45078;51.654;21.250;2023-10-13T02:02:20;7.03;;;2.65;;
59310;SDS011;45078;51.654;21.250;2023-10-13T02:04:54;9.68;;;1.88;;
59310;SDS011;45078;51.654;21.250;2023-10-13T02:07:22;5.45;;;1.90;;
59310;SDS011;45078;51.654;21.250;2023-10-13T02:09:54;14.87;;;2.20;;
59310;SDS011;45078;51.654;21.250;2023-10-13T02:12:20;6.68;;;2.05;;
59310;SDS011;45078;51.654;21.250;2023-10-13T02:14:54;7.88;;;2.08;;
59310;SDS011;45078;51.654;21.250;2023-10-13T02:17:19;6.88;;;2.10;;
59310;SDS011;45078;51.654;21.250;2023-10-13T02:19:48;6.22;;;2.05;;
59310;SDS011;45078;51.654;21.250;2023-10-13T02:22:14;6.78;;;2.30;;
59310;SDS011;45078;51.654;21.250;2023-10-13T02:24:52;7.57;;;2.30;;
59310;SDS011;45078;51.654;21.250;2023-10-13T02:27:17;7.13;;;2.38;;
59310;SDS011;45078;51.654;21.250;2023-10-13T02:29:48;4.68;;;2.17;;
59310;SDS011;45078;51.654;21.250;2023-10-13T02:32:14;6.72;;;2.30;;
59310;SDS011;45078;51.654;21.250;2023-10-13T02:34:46;5.38;;;2.17;;
59310;SDS011;45078;51.654;21.250;2023-10-13T02:37:12;7.35;;;2.00;;
59310;SDS011;45078;51.654;21.250;2023-10-13T02:39:41;6.72;;;2.70;;
59310;SDS011;45078;51.654;21.250;2023-10-13T02:42:07;6.72;;;2.33;;
59310;SDS011;45078;51.654;21.250;2023-10-13T02:44:36;5.63;;;2.30;;
59310;SDS011;45078;51.654;21.250;2023-10-13T02:47:02;5.25;;;2.45;;
59310;SDS011;45078;51.654;21.250;2023-10-13T02:49:39;10.30;;;2.50;;
59310;SDS011;45078;51.654;21.250;2023-10-13T02:52:08;6.88;;;2.35;;
59310;SDS011;45078;51.654;21.250;2023-10-13T02:54:35;6.55;;;2.10;;
59310;SDS011;45078;51.654;21.250;2023-10-13T02:57:27;6.13;;;2.42;;
59310;SDS011;45078;51.654;21.250;2023-10-13T02:59:52;5.75;;;2.13;;
59310;SDS011;45078;51.654;21.250;2023-10-13T03:02:36;9.23;;;2.35;;
59310;SDS011;45078;51.654;21.250;2023-10-13T03:05:10;9.32;;;2.17;;
59310;SDS011;45078;51.654;21.250;2023-10-13T03:07:38;6.00;;;2.13;;
59310;SDS011;45078;51.654;21.250;2023-10-13T03:10:08;9.95;;;2.38;;
59310;SDS011;45078;51.654;21.250;2023-10-13T03:12:37;8.48;;;2.28;;
59310;SDS011;45078;51.654;21.250;2023-10-13T03:15:04;6.72;;;2.10;;
59310;SDS011;45078;51.654;21.250;2023-10-13T03:17:43;9.15;;;2.05;;
59310;SDS011;45078;51.654;21.250;2023-10-13T03:20:10;6.85;;;2.20;;
59310;SDS011;45078;51.654;21.250;2023-10-13T03:22:40;8.68;;;3.13;;
59310;SDS011;45078;51.654;21.250;2023-10-13T03:25:09;6.68;;;2.45;;
59310;SDS011;45078;51.654;21.250;2023-10-13T03:27:53;11.57;;;2.42;;
59310;SDS011;45078;51.654;21.250;2023-10-13T03:30:19;5.20;;;2.08;;
59310;SDS011;45078;51.654;21.250;2023-10-13T03:32:46;10.45;;;2.58;;
59310;SDS011;45078;51.654;21.250;2023-10-13T03:38:02;4.43;;;1.90;;
59310;SDS011;45078;51.654;21.250;2023-10-13T03:40:28;7.47;;;2.63;;
59310;SDS011;45078;51.654;21.250;2023-10-13T03:42:57;6.53;;;2.58;;
59310;SDS011;45078;51.654;21.250;2023-10-13T03:45:33;6.60;;;2.33;;
59310;SDS011;45078;51.654;21.250;2023-10-13T03:48:08;8.45;;;2.13;;
59310;SDS011;45078;51.654;21.250;2023-10-13T03:50:37;5.05;;;2.75;;
59310;SDS011;45078;51.654;21.250;2023-10-13T03:53:12;7.15;;;2.63;;
59310;SDS011;45078;51.654;21.250;2023-10-13T03:55:38;12.88;;;2.90;;
59310;SDS011;45078;51.654;21.250;2023-10-13T03:58:05;8.23;;;3.10;;
59310;SDS011;45078;51.654;21.250;2023-10-13T04:00:31;6.68;;;2.17;;
59310;SDS011;45078;51.654;21.250;2023-10-13T04:02:57;8.57;;;2.42;;
59310;SDS011;45078;51.654;21.250;2023-10-13T04:05:34;6.85;;;2.95;;
59310;SDS011;45078;51.654;21.250;2023-10-13T04:08:06;6.30;;;2.47;;
59310;SDS011;45078;51.654;21.250;2023-10-13T04:11:05;7.45;;;2.30;;
59310;SDS011;45078;51.654;21.250;2023-10-13T04:13:49;8.98;;;2.58;;
59310;SDS011;45078;51.654;21.250;2023-10-13T04:16:35;5.00;;;1.98;;
59310;SDS011;45078;51.654;21.250;2023-10-13T04:19:01;6.97;;;2.40;;
59310;SDS011;45078;51.654;21.250;2023-10-13T04:21:27;8.23;;;2.40;;
59310;SDS011;45078;51.654;21.250;2023-10-13T04:24:08;9.73;;;2.50;;
59310;SDS011;45078;51.654;21.250;2023-10-13T04:26:40;8.55;;;2.33;;
59310;SDS011;45078;51.654;21.250;2023-10-13T04:29:26;8.18;;;2.47;;
59310;SDS011;45078;51.654;21.250;2023-10-13T04:32:14;8.88;;;2.35;;
59310;SDS011;45078;51.654;21.250;2023-10-13T04:34:44;5.85;;;2.15;;
59310;SDS011;45078;51.654;21.250;2023-10-13T04:37:16;11.70;;;2.50;;
59310;SDS011;45078;51.654;21.250;2023-10-13T04:39:54;7.22;;;2.10;;
59310;SDS011;45078;51.654;21.250;2023-10-13T04:42:36;9.20;;;2.17;;
59310;SDS011;45078;51.654;21.250;2023-10-13T04:45:14;7.63;;;2.10;;
59310;SDS011;45078;51.654;21.250;2023-10-13T04:48:10;10.00;;;1.70;;
59310;SDS011;45078;51.654;21.250;2023-10-13T04:50:48;7.55;;;2.35;;
59310;SDS011;45078;51.654;21.250;2023-10-13T04:53:24;6.80;;;1.58;;
59310;SDS011;45078;51.654;21.250;2023-10-13T04:55:58;7.47;;;1.73;;
59310;SDS011;45078;51.654;21.250;2023-10-13T04:58:25;9.02;;;1.67;;
59310;SDS011;45078;51.654;21.250;2023-10-13T05:00:59;13.50;;;3.22;;
59310;SDS011;45078;51.654;21.250;2023-10-13T05:03:43;3.75;;;1.40;;
59310;SDS011;45078;51.654;21.250;2023-10-13T05:06:33;6.38;;;1.60;;
59310;SDS011;45078;51.654;21.250;2023-10-13T05:09:25;7.60;;;1.67;;
59310;SDS011;45078;51.654;21.250;2023-10-13T05:12:09;4.50;;;1.60;;
59310;SDS011;45078;51.654;21.250;2023-10-13T05:14:53;6.03;;;1.50;;
59310;SDS011;45078;51.654;21.250;2023-10-13T05:17:37;7.57;;;1.80;;
59310;SDS011;45078;51.654;21.250;2023-10-13T05:20:21;6.25;;;2.08;;
59310;SDS011;45078;51.654;21.250;2023-10-13T05:23:05;11.15;;;3.47;;
59310;SDS011;45078;51.654;21.250;2023-10-13T05:25:49;11.93;;;2.88;;
59310;SDS011;45078;51.654;21.250;2023-10-13T05:28:33;6.00;;;1.90;;
59310;SDS011;45078;51.654;21.250;2023-10-13T05:31:17;6.93;;;1.58;;
59310;SDS011;45078;51.654;21.250;2023-10-13T05:34:01;10.43;;;1.45;;
59310;SDS011;45078;51.654;21.250;2023-10-13T05:36:45;6.65;;;1.60;;
59310;SDS011;45078;51.654;21.250;2023-10-13T05:39:30;7.90;;;1.60;;
59310;SDS011;45078;51.654;21.250;2023-10-13T05:42:14;8.45;;;1.70;;
59310;SDS011;45078;51.654;21.250;2023-10-13T05:44:58;9.57;;;1.83;;
59310;SDS011;45078;51.654;21.250;2023-10-13T05:47:49;9.20;;;1.83;;
59310;SDS011;45078;51.654;21.250;2023-10-13T05:50:25;8.60;;;1.98;;
59310;SDS011;45078;51.654;21.250;2023-10-13T05:52:51;5.38;;;2.08;;
59310;SDS011;45078;51.654;21.250;2023-10-13T05:55:29;7.13;;;2.22;;
59310;SDS011;45078;51.654;21.250;2023-10-13T05:58:14;6.00;;;2.10;;
59310;SDS011;45078;51.654;21.250;2023-10-13T06:00:59;6.28;;;2.00;;
59310;SDS011;45078;51.654;21.250;2023-10-13T06:03:44;9.95;;;2.17;;
59310;SDS011;45078;51.654;21.250;2023-10-13T06:06:28;6.47;;;2.30;;
59310;SDS011;45078;51.654;21.250;2023-10-13T06:09:13;6.28;;;2.00;;
59310;SDS011;45078;51.654;21.250;2023-10-13T06:11:57;8.80;;;2.35;;
59310;SDS011;45078;51.654;21.250;2023-10-13T06:14:45;8.05;;;1.95;;
59310;SDS011;45078;51.654;21.250;2023-10-13T06:17:29;5.70;;;2.03;;
59310;SDS011;45078;51.654;21.250;2023-10-13T06:20:13;10.10;;;2.30;;
59310;SDS011;45078;51.654;21.250;2023-10-13T06:22:57;7.18;;;2.08;;
59310;SDS011;45078;51.654;21.250;2023-10-13T06:25:41;4.85;;;1.90;;
59310;SDS011;45078;51.654;21.250;2023-10-13T06:28:25;12.00;;;2.20;;
59310;SDS011;45078;51.654;21.250;2023-10-13T06:31:06;9.05;;;1.70;;
59310;SDS011;45078;51.654;21.250;2023-10-13T06:33:33;6.22;;;2.03;;
59310;SDS011;45078;51.654;21.250;2023-10-13T06:36:02;4.68;;;1.92;;
59310;SDS011;45078;51.654;21.250;2023-10-13T06:38:34;9.75;;;2.08;;
59310;SDS011;45078;51.654;21.250;2023-10-13T06:41:03;4.85;;;2.00;;
59310;SDS011;45078;51.654;21.250;2023-10-13T06:43:35;5.30;;;1.73;;
59310;SDS011;45078;51.654;21.250;2023-10-13T06:46:05;9.30;;;2.53;;
59310;SDS011;45078;51.654;21.250;2023-10-13T06:48:39;10.02;;;2.00;;
59310;SDS011;45078;51.654;21.250;2023-10-13T06:51:05;8.32;;;2.10;;
59310;SDS011;45078;51.654;21.250;2023-10-13T06:53:46;7.15;;;2.22;;
59310;SDS011;45078;51.654;21.250;2023-10-13T06:56:15;13.60;;;2.45;;
59310;SDS011;45078;51.654;21.250;2023-10-13T06:58:48;5.63;;;2.33;;
59310;SDS011;45078;51.654;21.250;2023-10-13T07:01:14;5.80;;;2.22;;
59310;SDS011;45078;51.654;21.250;2023-10-13T07:03:47;8.40;;;2.22;;
59310;SDS011;45078;51.654;21.250;2023-10-13T07:06:22;7.87;;;2.20;;
59310;SDS011;45078;51.654;21.250;2023-10-13T07:08:48;11.70;;;2.67;;
59310;SDS011;45078;51.654;21.250;2023-10-13T07:11:24;10.40;;;2.08;;
59310;SDS011;45078;51.654;21.250;2023-10-13T07:14:03;6.07;;;2.13;;
59310;SDS011;45078;51.654;21.250;2023-10-13T07:19:23;8.82;;;2.28;;
59310;SDS011;45078;51.654;21.250;2023-10-13T07:21:53;7.07;;;2.40;;
59310;SDS011;45078;51.654;21.250;2023-10-13T07:24:28;8.43;;;3.10;;
59310;SDS011;45078;51.654;21.250;2023-10-13T07:26:57;8.10;;;2.67;;
59310;SDS011;45078;51.654;21.250;2023-10-13T07:29:32;6.95;;;2.47;;
59310;SDS011;45078;51.654;21.250;2023-10-13T07:32:01;5.30;;;2.17;;
59310;SDS011;45078;51.654;21.250;2023-10-13T07:34:28;7.20;;;2.40;;
59310;SDS011;45078;51.654;21.250;2023-10-13T07:36:57;7.72;;;2.25;;
59310;SDS011;45078;51.654;21.250;2023-10-13T07:39:27;8.25;;;2.58;;
59310;SDS011;45078;51.654;21.250;2023-10-13T07:41:54;12.75;;;3.15;;
59310;SDS011;45078;51.654;21.250;2023-10-13T07:44:23;9.70;;;3.10;;
59310;SDS011;45078;51.654;21.250;2023-10-13T07:46:57;10.80;;;2.80;;
59310;SDS011;45078;51.654;21.250;2023-10-13T07:49:26;9.93;;;3.05;;
59310;SDS011;45078;51.654;21.250;2023-10-13T07:51:56;11.57;;;3.03;;
59310;SDS011;45078;51.654;21.250;2023-10-13T07:54:47;8.57;;;2.83;;
59310;SDS011;45078;51.654;21.250;2023-10-13T07:57:35;11.07;;;3.25;;
59310;SDS011;45078;51.654;21.250;2023-10-13T08:00:20;9.95;;;3.10;;
59310;SDS011;45078;51.654;21.250;2023-10-13T08:03:07;8.45;;;2.88;;
59310;SDS011;45078;51.654;21.250;2023-10-13T08:05:42;12.15;;;3.20;;
59310;SDS011;45078;51.654;21.250;2023-10-13T08:08:23;9.68;;;3.75;;
59310;SDS011;45078;51.654;21.250;2023-10-13T08:11:02;9.52;;;3.60;;
59310;SDS011;45078;51.654;21.250;2023-10-13T08:13:47;15.70;;;3.55;;
59310;SDS011;45078;51.654;21.250;2023-10-13T08:16:24;10.68;;;3.25;;
59310;SDS011;45078;51.654;21.250;2023-10-13T08:19:14;6.78;;;2.85;;
59310;SDS011;45078;51.654;21.250;2023-10-13T08:21:42;6.20;;;3.10;;
59310;SDS011;45078;51.654;21.250;2023-10-13T08:24:16;10.35;;;3.78;;
59310;SDS011;45078;51.654;21.250;2023-10-13T08:26:50;11.57;;;3.78;;
59310;SDS011;45078;51.654;21.250;2023-10-13T08:32:23;6.25;;;3.17;;
59310;SDS011;45078;51.654;21.250;2023-10-13T08:34:52;9.30;;;3.67;;
59310;SDS011;45078;51.654;21.250;2023-10-13T08:37:22;9.75;;;3.78;;
59310;SDS011;45078;51.654;21.250;2023-10-13T08:39:51;8.05;;;3.53;;
59310;SDS011;45078;51.654;21.250;2023-10-13T08:47:56;13.68;;;4.43;;
59310;SDS011;45078;51.654;21.250;2023-10-13T08:53:16;13.55;;;3.80;;
59310;SDS011;45078;51.654;21.250;2023-10-13T08:58:29;8.77;;;3.85;;
59310;SDS011;45078;51.654;21.250;2023-10-13T09:01:15;12.18;;;3.65;;
59310;SDS011;45078;51.654;21.250;2023-10-13T09:03:56;6.40;;;4.00;;
59310;SDS011;45078;51.654;21.250;2023-10-13T09:06:56;10.98;;;3.60;;
59310;SDS011;45078;51.654;21.250;2023-10-13T09:09:32;8.93;;;3.53;;
59310;SDS011;45078;51.654;21.250;2023-10-13T09:12:29;11.02;;;3.63;;
59310;SDS011;45078;51.654;21.250;2023-10-13T09:14:59;10.93;;;3.90;;
59310;SDS011;45078;51.654;21.250;2023-10-13T09:17:42;9.07;;;3.90;;
59310;SDS011;45078;51.654;21.250;2023-10-13T09:20:16;9.05;;;4.03;;
59310;SDS011;45078;51.654;21.250;2023-10-13T09:22:49;9.93;;;4.22;;
59310;SDS011;45078;51.654;21.250;2023-10-13T09:25:34;9.38;;;4.07;;
59310;SDS011;45078;51.654;21.250;2023-10-13T09:28:11;14.35;;;4.28;;
59310;SDS011;45078;51.654;21.250;2023-10-13T09:30:43;15.38;;;4.55;;
59310;SDS011;45078;51.654;21.250;2023-10-13T09:33:13;9.15;;;4.35;;
59310;SDS011;45078;51.654;21.250;2023-10-13T09:35:53;10.90;;;4.35;;
59310;SDS011;45078;51.654;21.250;2023-10-13T09:38:20;17.75;;;5.82;;
59310;SDS011;45078;51.654;21.250;2023-10-13T09:40:46;9.40;;;4.32;;
59310;SDS011;45078;51.654;21.250;2023-10-13T09:43:15;13.45;;;4.40;;
59310;SDS011;45078;51.654;21.250;2023-10-13T09:45:45;17.83;;;5.78;;
59310;SDS011;45078;51.654;21.250;2023-10-13T09:48:31;12.00;;;5.05;;
59310;SDS011;45078;51.654;21.250;2023-10-13T09:51:13;10.50;;;4.68;;
59310;SDS011;45078;51.654;21.250;2023-10-13T09:53:46;9.20;;;4.22;;
59310;SDS011;45078;51.654;21.250;2023-10-13T09:56:24;13.57;;;4.85;;
59310;SDS011;45078;51.654;21.250;2023-10-13T09:58:54;12.20;;;4.88;;
59310;SDS011;45078;51.654;21.250;2023-10-13T10:01:27;10.35;;;4.75;;
59310;SDS011;45078;51.654;21.250;2023-10-13T10:04:10;13.30;;;5.82;;
59310;SDS011;45078;51.654;21.250;2023-10-13T10:06:51;10.63;;;4.75;;
59310;SDS011;45078;51.654;21.250;2023-10-13T10:09:17;13.40;;;5.07;;
59310;SDS011;45078;51.654;21.250;2023-10-13T10:14:46;14.07;;;5.88;;
59310;SDS011;45078;51.654;21.250;2023-10-13T10:17:43;13.63;;;5.53;;
59310;SDS011;45078;51.654;21.250;2023-10-13T10:20:10;12.85;;;5.13;;
59310;SDS011;45078;51.654;21.250;2023-10-13T10:22:56;11.93;;;5.30;;
59310;SDS011;45078;51.654;21.250;2023-10-13T10:25:31;10.95;;;5.00;;
59310;SDS011;45078;51.654;21.250;2023-10-13T10:28:07;17.42;;;6.05;;
59310;SDS011;45078;51.654;21.250;2023-10-13T10:30:33;15.40;;;5.82;;
59310;SDS011;45078;51.654;21.250;2023-10-13T10:33:03;14.55;;;5.78;;
59310;SDS011;45078;51.654;21.250;2023-10-13T10:35:37;11.70;;;5.35;;
59310;SDS011;45078;51.654;21.250;2023-10-13T10:40:52;13.40;;;5.47;;
59310;SDS011;45078;51.654;21.250;2023-10-13T10:43:43;12.25;;;5.80;;
59310;SDS011;45078;51.654;21.250;2023-10-13T10:48:37;13.95;;;7.05;;
59310;SDS011;45078;51.654;21.250;2023-10-13T10:51:09;13.63;;;5.83;;
59310;SDS011;45078;51.654;21.250;2023-10-13T10:53:46;12.85;;;5.18;;
59310;SDS011;45078;51.654;21.250;2023-10-13T10:56:14;11.98;;;6.20;;
59310;SDS011;45078;51.654;21.250;2023-10-13T10:58:53;12.68;;;6.05;;
59310;SDS011;45078;51.654;21.250;2023-10-13T11:01:29;11.73;;;5.53;;
59310;SDS011;45078;51.654;21.250;2023-10-13T11:04:12;16.73;;;6.13;;
59310;SDS011;45078;51.654;21.250;2023-10-13T11:06:52;14.77;;;6.20;;
59310;SDS011;45078;51.654;21.250;2023-10-13T11:09:41;12.60;;;5.80;;
59310;SDS011;45078;51.654;21.250;2023-10-13T11:12:10;16.20;;;6.63;;
59310;SDS011;45078;51.654;21.250;2023-10-13T11:15:06;12.35;;;5.88;;
59310;SDS011;45078;51.654;21.250;2023-10-13T11:17:39;13.52;;;5.72;;
59310;SDS011;45078;51.654;21.250;2023-10-13T11:20:08;13.68;;;6.03;;
59310;SDS011;45078;51.654;21.250;2023-10-13T11:22:45;13.25;;;6.00;;
59310;SDS011;45078;51.654;21.250;2023-10-13T11:25:19;12.27;;;5.88;;
59310;SDS011;45078;51.654;21.250;2023-10-13T11:27:54;11.55;;;6.13;;
59310;SDS011;45078;51.654;21.250;2023-10-13T11:30:21;11.52;;;5.75;;
59310;SDS011;45078;51.654;21.250;2023-10-13T11:32:58;11.63;;;5.93;;
59310;SDS011;45078;51.654;21.250;2023-10-13T11:35:25;14.82;;;6.45;;
59310;SDS011;45078;51.654;21.250;2023-10-13T11:37:54;13.50;;;6.20;;
59310;SDS011;45078;51.654;21.250;2023-10-13T11:40:22;14.23;;;6.10;;
59310;SDS011;45078;51.654;21.250;2023-10-13T11:43:07;15.57;;;6.90;;
59310;SDS011;45078;51.654;21.250;2023-10-13T11:45:40;13.70;;;6.55;;
59310;SDS011;45078;51.654;21.250;2023-10-13T11:48:38;16.40;;;6.82;;
59310;SDS011;45078;51.654;21.250;2023-10-13T11:51:06;14.23;;;6.50;;
59310;SDS011;45078;51.654;21.250;2023-10-13T11:53:43;18.73;;;7.20;;
59310;SDS011;45078;51.654;21.250;2023-10-13T11:56:19;14.48;;;6.95;;
59310;SDS011;45078;51.654;21.250;2023-10-13T11:58:48;16.30;;;6.40;;
59310;SDS011;45078;51.654;21.250;2023-10-13T12:01:14;15.45;;;7.28;;
59310;SDS011;45078;51.654;21.250;2023-10-13T12:03:44;15.90;;;6.97;;
59310;SDS011;45078;51.654;21.250;2023-10-13T12:06:29;9.57;;;5.68;;
59310;SDS011;45078;51.654;21.250;2023-10-13T12:11:47;16.77;;;6.90;;
59310;SDS011;45078;51.654;21.250;2023-10-13T12:14:16;19.17;;;7.00;;
59310;SDS011;45078;51.654;21.250;2023-10-13T12:16:46;16.98;;;6.50;;
59310;SDS011;45078;51.654;21.250;2023-10-13T12:19:16;15.43;;;6.50;;
59310;SDS011;45078;51.654;21.250;2023-10-13T12:21:49;13.00;;;6.35;;
59310;SDS011;45078;51.654;21.250;2023-10-13T12:24:19;12.40;;;6.75;;
59310;SDS011;45078;51.654;21.250;2023-10-13T12:27:00;14.23;;;6.03;;
59310;SDS011;45078;51.654;21.250;2023-10-13T12:29:47;13.73;;;6.05;;
59310;SDS011;45078;51.654;21.250;2023-10-13T12:32:14;11.57;;;5.68;;
59310;SDS011;45078;51.654;21.250;2023-10-13T12:34:45;14.52;;;5.97;;
59310;SDS011;45078;51.654;21.250;2023-10-13T12:37:29;11.18;;;6.72;;
59310;SDS011;45078;51.654;21.250;2023-10-13T12:40:08;10.45;;;5.80;;
59310;SDS011;45078;51.654;21.250;2023-10-13T12:42:55;11.07;;;5.28;;
59310;SDS011;45078;51.654;21.250;2023-10-13T12:45:40;13.10;;;5.78;;
59310;SDS011;45078;51.654;21.250;2023-10-13T12:48:25;11.10;;;5.63;;
59310;SDS011;45078;51.654;21.250;2023-10-13T12:51:09;15.50;;;5.50;;
59310;SDS011;45078;51.654;21.250;2023-10-13T12:54:05;12.60;;;5.22;;
59310;SDS011;45078;51.654;21.250;2023-10-13T12:56:48;12.32;;;5.57;;
59310;SDS011;45078;51.654;21.250;2023-10-13T12:59:15;9.27;;;4.75;;
59310;SDS011;45078;51.654;21.250;2023-10-13T13:01:42;10.57;;;5.40;;
59310;SDS011;45078;51.654;21.250;2023-10-13T13:04:08;12.63;;;5.85;;
59310;SDS011;45078;51.654;21.250;2023-10-13T13:06:45;18.13;;;6.43;;
59310;SDS011;45078;51.654;21.250;2023-10-13T13:09:11;12.57;;;6.00;;
59310;SDS011;45078;51.654;21.250;2023-10-13T13:11:37;10.52;;;5.85;;
59310;SDS011;45078;51.654;21.250;2023-10-13T13:14:05;10.82;;;5.53;;
59310;SDS011;45078;51.654;21.250;2023-10-13T13:16:33;13.98;;;6.05;;
59310;SDS011;45078;51.654;21.250;2023-10-13T13:18:59;19.40;;;6.50;;
59310;SDS011;45078;51.654;21.250;2023-10-13T13:21:28;14.80;;;6.22;;
59310;SDS011;45078;51.654;21.250;2023-10-13T13:23:54;10.65;;;5.68;;
59310;SDS011;45078;51.654;21.250;2023-10-13T13:26:23;11.70;;;5.63;;
59310;SDS011;45078;51.654;21.250;2023-10-13T13:28:49;13.40;;;6.60;;
59310;SDS011;45078;51.654;21.250;2023-10-13T13:31:18;16.80;;;6.60;;
59310;SDS011;45078;51.654;21.250;2023-10-13T13:33:50;12.98;;;6.47;;
59310;SDS011;45078;51.654;21.250;2023-10-13T13:36:15;13.57;;;6.38;;
59310;SDS011;45078;51.654;21.250;2023-10-13T13:38:41;13.32;;;6.95;;
59310;SDS011;45078;51.654;21.250;2023-10-13T13:41:11;13.02;;;5.55;;
59310;SDS011;45078;51.654;21.250;2023-10-13T13:43:41;13.00;;;6.68;;
59310;SDS011;45078;51.654;21.250;2023-10-13T13:46:21;12.90;;;6.32;;
59310;SDS011;45078;51.654;21.250;2023-10-13T13:48:52;14.45;;;6.15;;
59310;SDS011;45078;51.654;21.250;2023-10-13T13:51:31;11.00;;;6.40;;
59310;SDS011;45078;51.654;21.250;2023-10-13T13:53:58;11.38;;;5.97;;
59310;SDS011;45078;51.654;21.250;2023-10-13T13:56:25;10.40;;;6.28;;
59310;SDS011;45078;51.654;21.250;2023-10-13T13:58:52;13.07;;;6.13;;
59310;SDS011;45078;51.654;21.250;2023-10-13T14:01:19;11.93;;;5.88;;
59310;SDS011;45078;51.654;21.250;2023-10-13T14:03:51;14.80;;;5.90;;
59310;SDS011;45078;51.654;21.250;2023-10-13T14:06:19;12.27;;;6.47;;
59310;SDS011;45078;51.654;21.250;2023-10-13T14:08:52;18.20;;;6.40;;
59310;SDS011;45078;51.654;21.250;2023-10-13T14:11:29;9.32;;;5.50;;
59310;SDS011;45078;51.654;21.250;2023-10-13T14:14:02;13.10;;;6.88;;
59310;SDS011;45078;51.654;21.250;2023-10-13T14:16:29;14.65;;;6.60;;
59310;SDS011;45078;51.654;21.250;2023-10-13T14:18:58;14.45;;;5.47;;
59310;SDS011;45078;51.654;21.250;2023-10-13T14:21:26;14.25;;;6.25;;
59310;SDS011;45078;51.654;21.250;2023-10-13T14:23:53;12.25;;;5.47;;
59310;SDS011;45078;51.654;21.250;2023-10-13T14:26:19;14.57;;;5.65;;
59310;SDS011;45078;51.654;21.250;2023-10-13T14:28:55;12.38;;;6.18;;
59310;SDS011;45078;51.654;21.250;2023-10-13T14:31:30;13.73;;;6.68;;
59310;SDS011;45078;51.654;21.250;2023-10-13T14:33:57;15.63;;;6.28;;
59310;SDS011;45078;51.654;21.250;2023-10-13T14:36:23;16.08;;;6.85;;
59310;SDS011;45078;51.654;21.250;2023-10-13T14:38:53;15.65;;;6.85;;
59310;SDS011;45078;51.654;21.250;2023-10-13T14:41:20;13.68;;;6.68;;
59310;SDS011;45078;51.654;21.250;2023-10-13T14:43:46;10.77;;;6.53;;
59310;SDS011;45078;51.654;21.250;2023-10-13T14:46:19;13.63;;;6.55;;
59310;SDS011;45078;51.654;21.250;2023-10-13T14:48:48;11.57;;;6.35;;
59310;SDS011;45078;51.654;21.250;2023-10-13T14:51:17;14.38;;;6.70;;
59310;SDS011;45078;51.654;21.250;2023-10-13T14:53:43;14.60;;;6.60;;
59310;SDS011;45078;51.654;21.250;2023-10-13T14:56:12;11.32;;;6.80;;
59310;SDS011;45078;51.654;21.250;2023-10-13T14:58:39;11.68;;;6.22;;
59310;SDS011;45078;51.654;21.250;2023-10-13T15:01:17;17.45;;;7.25;;
59310;SDS011;45078;51.654;21.250;2023-10-13T15:03:43;13.77;;;7.00;;
59310;SDS011;45078;51.654;21.250;2023-10-13T15:06:17;12.13;;;7.00;;
59310;SDS011;45078;51.654;21.250;2023-10-13T15:08:50;18.45;;;7.13;;
59310;SDS011;45078;51.654;21.250;2023-10-13T15:11:18;14.57;;;7.30;;
59310;SDS011;45078;51.654;21.250;2023-10-13T15:13:44;13.52;;;6.63;;
59310;SDS011;45078;51.654;21.250;2023-10-13T15:16:13;15.90;;;7.57;;
59310;SDS011;45078;51.654;21.250;2023-10-13T15:18:42;16.77;;;7.40;;
59310;SDS011;45078;51.654;21.250;2023-10-13T15:23:53;15.45;;;7.40;;
59310;SDS011;45078;51.654;21.250;2023-10-13T15:26:23;13.57;;;7.72;;
59310;SDS011;45078;51.654;21.250;2023-10-13T15:28:49;14.25;;;7.43;;
59310;SDS011;45078;51.654;21.250;2023-10-13T15:31:18;15.63;;;8.20;;
59310;SDS011;45078;51.654;21.250;2023-10-13T15:34:05;16.15;;;8.00;;
59310;SDS011;45078;51.654;21.250;2023-10-13T15:36:39;16.77;;;8.75;;
59310;SDS011;45078;51.654;21.250;2023-10-13T15:39:07;15.75;;;8.18;;
59310;SDS011;45078;51.654;21.250;2023-10-13T15:41:35;19.15;;;8.98;;
59310;SDS011;45078;51.654;21.250;2023-10-13T15:44:03;19.05;;;8.77;;